Thursday, May 24, 2018, 12:29 AM EDT
Back to Local

KMPV, Knapp State Airport

Location: Barre, VT, United States Lat: 44.2
Local Time: 12:29 AM EDT ( 4:29 GMT) Lon: -72.567
Time Zone: US/Eastern Elev: 1164 ft

Show me the last for .
Show Decoded

2018-05-23 23:51 METAR KMPV 240351Z AUTO 05005KT 10SM CLR 11/06 A3003 RMK AO2 SLP170 T01110056 =
2018-05-23 22:51 METAR KMPV 240251Z AUTO 26005KT 10SM CLR 13/06 A3003 RMK AO2 SLP168 T01280056
                 51011 =
2018-05-23 21:51 METAR KMPV 240151Z AUTO 26003KT 10SM CLR 13/06 A3002 RMK AO2 SLP166 T01280061 =
2018-05-23 20:51 METAR KMPV 240051Z AUTO 31004KT 10SM CLR 16/06 A3001 RMK AO2 SLP163 T01610061 =
2018-05-23 19:51 METAR KMPV 232351Z AUTO 30006KT 10SM BKN070 19/08 A3000 RMK AO2 SLP156 T01890083
                 10233 20189 53016 =
2018-05-23 18:51 METAR KMPV 232251Z AUTO 30008KT 10SM SCT070 OVC090 20/09 A2997 RMK AO2 SLP149
                 T02000089 =
2018-05-23 17:51 METAR KMPV 232151Z AUTO 32010G19KT 10SM FEW060 21/08 A2995 RMK AO2 SLP142
                 T02110078 =
2018-05-23 16:51 METAR KMPV 232051Z AUTO 33009KT 10SM FEW055 FEW070 21/09 A2995 RMK AO2 SLP139
                 T02110094 53007 =
2018-05-23 15:51 METAR KMPV 231951Z AUTO 33011G18KT 10SM FEW060 BKN095 22/11 A2993 RMK AO2 SLP134
                 T02220106 =
2018-05-23 14:51 METAR KMPV 231851Z AUTO 32008G17KT 10SM CLR 23/09 A2993 RMK AO2 PK WND
                 31028/1823 SLP132 T02330094 =
2018-05-23 13:51 METAR KMPV 231751Z AUTO 33013G22KT 10SM FEW060 23/11 A2992 RMK AO2 SLP131
                 T02280111 10228 20133 56006 =
2018-05-23 12:51 METAR KMPV 231651Z AUTO 34010KT 10SM CLR 22/12 A2993 RMK AO2 SLP133 T02220117 =
2018-05-23 11:51 METAR KMPV 231551Z AUTO 34007KT 10SM CLR 22/14 A2993 RMK AO2 SLP135 T02170139 =
2018-05-23 10:51 METAR KMPV 231451Z AUTO 33004KT 10SM CLR 19/14 A2994 RMK AO2 SLP138 T01940139
                 58006 =
2018-05-23 09:51 METAR KMPV 231351Z AUTO 00000KT 10SM CLR 17/13 A2995 RMK AO2 SLP142 T01720133 =
2018-05-23 08:51 METAR KMPV 231251Z AUTO 34005KT 10SM CLR 15/13 A2996 RMK AO2 SLP146 T01500128 =
2018-05-23 07:51 METAR KMPV 231151Z AUTO 33004KT 10SM FEW011 13/12 A2996 RMK AO2 SLP148 60004
                 70043 T01330122 10133 20111 53017 =
2018-05-23 06:51 METAR KMPV 231051Z AUTO 32004KT 10SM CLR 12/12 A2994 RMK AO2 SLP142 T01220122 =
2018-05-23 05:51 METAR KMPV 230951Z AUTO 30007KT 10SM CLR 12/12 A2992 RMK AO2 SLP135 T01170117
                 TSNO =
2018-05-23 04:51 METAR KMPV 230851Z AUTO 00000KT 10SM FEW029 12/12 A2991 RMK AO2 SLP131 60004
                 T01170117 51007 =
2018-05-23 04:48 METAR KMPV 230848Z AUTO 00000KT 10SM SCT031 12/12 A2991 RMK AO2 =
2018-05-23 04:30 METAR KMPV 230830Z AUTO 28004KT 10SM FEW006 BKN027 OVC032 12/12 A2991 RMK AO2
                 T01220122 =
2018-05-23 04:01 METAR KMPV 230801Z AUTO 29005KT 10SM SCT003 BKN007 OVC029 12/12 A2990 RMK AO2
                 T01220122 =
2018-05-23 03:51 METAR KMPV 230751Z AUTO 30003KT 2SM BR BKN003 BKN009 OVC029 12/12 A2990 RMK AO2
                 RAB0652E16 SLP128 P0000 T01170117 =
2018-05-23 03:37 METAR KMPV 230737Z AUTO 00000KT 2 1/2SM BR BKN001 OVC015 12/12 A2990 RMK AO2
                 RAB0652E16 P0000 T01220122 =
2018-05-23 03:31 METAR KMPV 230731Z AUTO 00000KT 5SM BR BKN003 OVC015 12/12 A2989 RMK AO2
                 RAB0652E16 P0000 T01170117 =
2018-05-23 03:04 METAR KMPV 230704Z AUTO 00000KT 5SM -RA BR FEW005 OVC018 12/12 A2989 RMK AO2
                 RAB0652 P0000 T01170117 =
2018-05-23 02:51 METAR KMPV 230651Z AUTO 00000KT 7SM OVC018 12/12 A2989 RMK AO2 RAE42 SLP123
                 P0004 T01170117 =
2018-05-23 02:42 METAR KMPV 230642Z AUTO 00000KT 7SM FEW007 OVC018 12/12 A2989 RMK AO2 RAE42
                 P0004 T01170117 =
2018-05-23 02:27 METAR KMPV 230627Z AUTO 00000KT 4SM -RA BR SCT007 BKN014 OVC023 12/12 A2989 RMK
                 AO2 P0004 T01220122 =
2018-05-23 02:02 METAR KMPV 230602Z AUTO 00000KT 5SM -RA BR SCT008 BKN026 OVC080 12/12 A2989 RMK
                 AO2 P0002 T01220122 =
2018-05-23 01:58 METAR KMPV 230558Z AUTO 00000KT 5SM RA BR SCT010 BKN050 OVC085 12/12 A2989 RMK
                 AO2 P0001 T01220122 =
2018-05-23 01:51 METAR KMPV 230551Z AUTO 00000KT 6SM -RA BR SCT008 BKN014 OVC060 12/12 A2989 RMK
                 AO2 SLP124 P0006 60007 T01220122 10128 20122 56005 =
2018-05-23 01:47 METAR KMPV 230547Z AUTO 00000KT 6SM -RA BR BKN008 BKN015 OVC065 12/12 A2989 RMK
                 AO2 P0006 =
2018-05-23 00:51 METAR KMPV 230451Z AUTO 17003KT 4SM -RA BR OVC013 12/12 A2990 RMK AO2
                 RAB08E38B46 SLP127 P0000 T01220122 401940078 =
2018-05-23 00:42 METAR KMPV 230442Z AUTO 15003KT 8SM OVC013 12/12 A2990 RMK AO2 RAB08E38 P0000
                 T01220122 =

Support USWX by starting your Amazon purchase here.